createdAt,value
2019-05-26T00:01:57.460Z,73.80
2019-05-26T00:04:25.868Z,73.70
2019-05-26T00:06:54.280Z,73.90
2019-05-26T00:09:22.725Z,73.90
2019-05-26T00:11:51.211Z,74.10
2019-05-26T00:14:19.598Z,74.00
2019-05-26T00:16:48.047Z,74.20
2019-05-26T00:19:16.458Z,74.80
2019-05-26T00:21:44.874Z,74.90
2019-05-26T00:24:13.304Z,75.20
2019-05-26T00:26:41.728Z,75.20
2019-05-26T00:29:10.167Z,75.20
2019-05-26T00:31:38.584Z,75.40
2019-05-26T00:34:07.037Z,75.50
2019-05-26T00:36:35.449Z,75.50
2019-05-26T00:39:05.568Z,75.50
2019-05-26T00:41:33.991Z,75.80
2019-05-26T00:44:02.481Z,75.70
2019-05-26T00:46:30.882Z,75.90
2019-05-26T00:48:59.309Z,75.90
2019-05-26T00:51:27.722Z,76.20
2019-05-26T00:53:56.143Z,76.20
2019-05-26T00:56:24.564Z,76.70
2019-05-26T00:58:53.239Z,76.70
2019-05-26T01:01:21.660Z,77.20
2019-05-26T01:03:50.084Z,77.40
2019-05-26T01:06:18.535Z,77.40
2019-05-26T01:08:46.950Z,77.30
2019-05-26T01:11:15.373Z,78.20
2019-05-26T01:13:43.786Z,77.60
2019-05-26T01:16:12.194Z,77.50
2019-05-26T01:18:40.616Z,77.70
2019-05-26T01:21:09.041Z,77.70
2019-05-26T01:23:37.476Z,77.60
2019-05-26T01:26:05.902Z,77.90
2019-05-26T01:28:34.587Z,77.90
2019-05-26T01:31:03.078Z,77.90
2019-05-26T01:33:31.763Z,77.90
2019-05-26T01:36:00.813Z,77.90
2019-05-26T01:38:29.672Z,78.40
2019-05-26T01:40:58.091Z,78.80
2019-05-26T01:43:26.597Z,79.00
2019-05-26T01:45:55.005Z,79.30
2019-05-26T01:48:23.424Z,79.60
2019-05-26T01:50:51.841Z,79.90
2019-05-26T01:53:20.261Z,79.90
2019-05-26T01:55:48.682Z,79.80
2019-05-26T01:58:17.114Z,79.70
2019-05-26T02:00:45.533Z,79.80
2019-05-26T02:03:13.951Z,79.30
2019-05-26T02:05:42.354Z,79.00
2019-05-26T02:08:11.987Z,79.30
2019-05-26T02:10:40.943Z,79.50
2019-05-26T02:13:09.383Z,79.70
2019-05-26T02:15:38.018Z,79.60
2019-05-26T02:18:06.725Z,79.70
2019-05-26T02:20:35.156Z,79.90
2019-05-26T02:23:03.926Z,80.00
2019-05-26T02:25:32.416Z,80.10
2019-05-26T02:28:00.984Z,80.30
2019-05-26T02:30:29.401Z,80.00
2019-05-26T02:32:57.809Z,79.70
2019-05-26T02:35:26.513Z,79.70
2019-05-26T02:37:54.950Z,79.90
2019-05-26T02:40:23.998Z,79.70
2019-05-26T02:42:52.420Z,80.00
2019-05-26T02:45:21.684Z,80.00
2019-05-26T02:47:50.102Z,80.30
2019-05-26T02:50:19.078Z,80.60
2019-05-26T02:52:47.607Z,81.20
2019-05-26T02:55:17.739Z,80.80
2019-05-26T02:57:46.315Z,80.80
2019-05-26T03:00:17.132Z,80.50
2019-05-26T03:02:46.049Z,80.30
2019-05-26T03:05:15.051Z,80.40
2019-05-26T03:07:44.277Z,80.30
2019-05-26T03:10:14.729Z,80.50
2019-05-26T03:12:43.638Z,80.40
2019-05-26T03:15:13.592Z,80.40
2019-05-26T03:17:46.461Z,80.30
2019-05-26T03:20:15.511Z,80.40
2019-05-26T03:22:45.665Z,80.30
2019-05-26T03:25:14.293Z,80.10
2019-05-26T03:27:42.805Z,80.20
2019-05-26T03:30:11.568Z,80.10
2019-05-26T03:32:40.162Z,79.80
2019-05-26T03:35:09.908Z,79.70
2019-05-26T03:37:38.428Z,79.70
2019-05-26T03:40:09.302Z,79.70
2019-05-26T03:42:37.710Z,79.50
2019-05-26T03:45:08.120Z,79.40
2019-05-26T03:47:36.561Z,79.30
2019-05-26T03:50:09.157Z,79.40
2019-05-26T03:52:37.574Z,78.80
2019-05-26T03:55:07.134Z,79.20
2019-05-26T03:57:35.560Z,79.10
2019-05-26T04:00:06.614Z,79.40
2019-05-26T04:02:35.085Z,79.20
2019-05-26T04:05:04.795Z,79.10
2019-05-26T04:07:33.182Z,79.10
2019-05-26T04:10:05.477Z,78.80
2019-05-26T04:12:32.568Z,78.90
2019-05-26T04:15:00.979Z,78.60
2019-05-26T04:17:29.722Z,78.10
2019-05-26T04:19:58.168Z,78.20
2019-05-26T04:22:26.619Z,78.20
2019-05-26T04:24:55.045Z,78.20
2019-05-26T04:27:23.500Z,78.50
2019-05-26T04:29:52.055Z,78.60
2019-05-26T04:32:20.476Z,78.60
2019-05-26T04:34:48.915Z,78.30
2019-05-26T04:37:17.379Z,78.10
2019-05-26T04:39:45.808Z,78.20
2019-05-26T04:42:14.211Z,77.70
2019-05-26T04:44:42.627Z,77.80
2019-05-26T04:47:11.035Z,77.80
2019-05-26T04:49:39.458Z,77.50
2019-05-26T04:52:07.866Z,77.60
2019-05-26T04:54:36.696Z,77.50
2019-05-26T04:57:05.464Z,77.40
2019-05-26T04:59:33.875Z,77.10
2019-05-26T05:02:02.291Z,76.90
2019-05-26T05:04:30.715Z,76.70
2019-05-26T05:06:59.150Z,76.50
2019-05-26T05:09:27.574Z,76.10
2019-05-26T05:11:55.983Z,75.90
2019-05-26T05:14:24.415Z,75.60
2019-05-26T05:16:52.832Z,75.50
2019-05-26T05:19:21.251Z,75.50
2019-05-26T05:21:49.668Z,75.10
2019-05-26T05:24:18.098Z,74.80
2019-05-26T05:26:46.503Z,74.40
2019-05-26T05:29:14.928Z,73.90
2019-05-26T05:31:43.344Z,73.50
2019-05-26T05:34:11.757Z,73.20
2019-05-26T05:36:40.176Z,73.10
2019-05-26T05:39:08.954Z,72.80
2019-05-26T05:41:37.380Z,72.40
2019-05-26T05:44:05.814Z,72.20
2019-05-26T05:46:34.237Z,72.20
2019-05-26T05:49:02.653Z,72.00
2019-05-26T05:51:31.084Z,71.60
2019-05-26T05:53:59.486Z,71.10
2019-05-26T05:56:27.929Z,70.90
2019-05-26T05:58:56.350Z,70.80
2019-05-26T06:01:24.776Z,70.80
2019-05-26T06:03:53.186Z,70.50
2019-05-26T06:06:21.628Z,70.40
2019-05-26T06:08:50.029Z,69.90
2019-05-26T06:11:18.444Z,69.70
2019-05-26T06:13:46.854Z,69.40
2019-05-26T06:16:15.285Z,68.90
2019-05-26T06:18:43.700Z,68.60
2019-05-26T06:21:12.116Z,68.30
2019-05-26T06:23:40.626Z,68.10
2019-05-26T06:26:09.350Z,68.40
2019-05-26T06:28:37.828Z,68.90
2019-05-26T06:31:06.232Z,69.20
2019-05-26T06:33:34.657Z,69.30
2019-05-26T06:36:03.079Z,69.40
2019-05-26T06:38:31.498Z,69.50
2019-05-26T06:41:00.148Z,69.60
2019-05-26T06:43:28.557Z,69.60
2019-05-26T06:45:56.997Z,69.60
2019-05-26T06:48:26.869Z,69.60
2019-05-26T06:50:55.949Z,69.40
2019-05-26T06:53:24.359Z,69.80
2019-05-26T06:55:52.778Z,68.90
2019-05-26T06:58:25.730Z,68.40
2019-05-26T07:00:54.217Z,68.10
2019-05-26T07:03:22.643Z,68.10
2019-05-26T07:05:51.067Z,68.20
2019-05-26T07:08:19.575Z,68.20
2019-05-26T07:10:47.988Z,68.20
2019-05-26T07:13:16.416Z,67.60
2019-05-26T07:15:44.844Z,67.90
2019-05-26T07:18:14.018Z,67.60
2019-05-26T07:20:43.229Z,67.20
2019-05-26T07:23:11.712Z,66.80
2019-05-26T07:25:40.160Z,66.30
2019-05-26T07:28:08.577Z,66.20
2019-05-26T07:30:36.988Z,66.20
2019-05-26T07:33:05.481Z,65.50
2019-05-26T07:35:33.915Z,64.90
2019-05-26T07:38:02.387Z,64.80
2019-05-26T07:40:30.878Z,64.60
2019-05-26T07:42:59.295Z,64.70
2019-05-26T07:45:27.718Z,64.70
2019-05-26T07:47:56.151Z,63.60
2019-05-26T07:50:24.692Z,62.40
2019-05-26T07:52:53.391Z,61.40
2019-05-26T07:55:21.797Z,60.70
2019-05-26T07:57:50.217Z,60.20
2019-05-26T08:00:20.077Z,59.90
2019-05-26T08:02:48.494Z,59.50
2019-05-26T08:05:16.920Z,59.40
2019-05-26T08:07:45.722Z,59.00
2019-05-26T08:10:14.783Z,58.50
2019-05-26T08:12:43.216Z,58.10
2019-05-26T08:15:12.335Z,58.00
2019-05-26T08:17:40.761Z,57.40
2019-05-26T08:20:09.732Z,57.00
2019-05-26T08:22:39.023Z,56.70
2019-05-26T08:25:08.356Z,56.70
2019-05-26T08:27:36.798Z,55.50
2019-05-26T08:30:07.286Z,55.20
2019-05-26T08:32:35.780Z,54.90
2019-05-26T08:35:07.015Z,55.00
2019-05-26T08:37:35.434Z,54.40
2019-05-26T08:40:20.003Z,54.70
2019-05-26T08:42:50.718Z,54.60
2019-05-26T08:45:22.112Z,54.20
2019-05-26T08:47:51.045Z,53.90
2019-05-26T08:50:20.037Z,54.10
2019-05-26T08:52:48.532Z,53.40
2019-05-26T08:55:17.496Z,52.80
2019-05-26T08:57:45.941Z,53.10
2019-05-26T09:00:14.859Z,52.80
2019-05-26T09:02:43.296Z,52.50
2019-05-26T09:05:11.759Z,52.40
2019-05-26T09:07:40.166Z,52.20
2019-05-26T09:10:09.376Z,52.20
2019-05-26T09:12:37.800Z,51.70
2019-05-26T09:15:07.847Z,52.10
2019-05-26T09:17:36.259Z,52.10
2019-05-26T09:20:06.720Z,51.90
2019-05-26T09:22:35.151Z,51.80
2019-05-26T09:25:05.495Z,51.80
2019-05-26T09:27:33.919Z,51.90
2019-05-26T09:30:02.349Z,52.10
2019-05-26T09:32:30.762Z,52.10
2019-05-26T09:34:59.441Z,52.10
2019-05-26T09:37:27.877Z,52.20
2019-05-26T09:39:56.283Z,52.30
2019-05-26T09:42:24.705Z,51.90
2019-05-26T09:44:53.114Z,51.70
2019-05-26T09:47:21.519Z,52.10
2019-05-26T09:49:49.967Z,52.60
2019-05-26T09:52:18.374Z,52.40
2019-05-26T09:54:46.823Z,51.70
2019-05-26T09:57:15.247Z,51.90
2019-05-26T09:59:43.660Z,51.60
2019-05-26T10:02:12.160Z,51.40
2019-05-26T10:04:40.828Z,51.20
2019-05-26T10:07:13.330Z,51.40
2019-05-26T10:09:39.404Z,51.70
2019-05-26T10:12:07.829Z,51.50
2019-05-26T10:14:36.230Z,51.80
2019-05-26T10:17:04.756Z,51.40
2019-05-26T10:19:33.402Z,51.60
2019-05-26T10:22:03.058Z,51.10
2019-05-26T10:24:31.477Z,50.80
2019-05-26T10:26:59.941Z,50.60
2019-05-26T10:29:28.528Z,50.70
2019-05-26T10:31:56.940Z,51.10
2019-05-26T10:34:25.366Z,51.20
2019-05-26T10:36:53.839Z,51.00
2019-05-26T10:39:22.263Z,50.40
2019-05-26T10:41:51.052Z,50.10
2019-05-26T10:44:19.662Z,50.70
2019-05-26T10:46:48.157Z,51.10
2019-05-26T10:49:16.561Z,51.50
2019-05-26T10:51:44.988Z,51.70
2019-05-26T10:54:13.414Z,51.80
2019-05-26T10:56:41.821Z,51.60
2019-05-26T10:59:10.243Z,52.00
2019-05-26T11:01:38.652Z,51.90
2019-05-26T11:04:07.256Z,51.60
2019-05-26T11:06:35.657Z,51.90
2019-05-26T11:09:06.315Z,52.00
2019-05-26T11:11:34.999Z,52.20
2019-05-26T11:14:03.903Z,52.50
2019-05-26T11:16:32.442Z,52.00
2019-05-26T11:19:00.882Z,51.60
2019-05-26T11:21:29.297Z,51.20
2019-05-26T11:23:57.998Z,50.90
2019-05-26T11:26:26.699Z,50.50
2019-05-26T11:28:55.132Z,50.70
2019-05-26T11:31:23.554Z,51.10
2019-05-26T11:33:51.979Z,51.10
2019-05-26T11:36:20.433Z,51.20
2019-05-26T11:38:48.897Z,51.00
2019-05-26T11:41:17.323Z,51.80
2019-05-26T11:43:46.004Z,51.60
2019-05-26T11:46:16.762Z,52.00
2019-05-26T11:48:44.871Z,52.10
2019-05-26T11:51:13.299Z,51.40
2019-05-26T11:53:41.721Z,51.10
2019-05-26T11:56:10.133Z,50.80
2019-05-26T11:58:38.553Z,50.70
2019-05-26T12:01:07.017Z,50.50
2019-05-26T12:03:35.445Z,50.80
2019-05-26T12:06:03.928Z,51.10
2019-05-26T12:08:32.347Z,51.60
2019-05-26T12:11:00.822Z,51.30
2019-05-26T12:13:29.283Z,51.00
2019-05-26T12:15:57.702Z,50.70
2019-05-26T12:18:26.113Z,51.00
2019-05-26T12:20:54.539Z,51.30
2019-05-26T12:23:22.946Z,51.30
2019-05-26T12:25:51.361Z,51.10
2019-05-26T12:28:19.782Z,51.10
2019-05-26T12:30:48.205Z,51.00
2019-05-26T12:33:16.641Z,50.70
2019-05-26T12:35:48.194Z,50.80
2019-05-26T12:38:16.621Z,51.30
2019-05-26T12:40:45.255Z,51.40
2019-05-26T12:43:13.775Z,51.30
2019-05-26T12:45:42.534Z,51.40
2019-05-26T12:48:11.029Z,52.00
2019-05-26T12:50:39.560Z,52.80
2019-05-26T12:53:08.198Z,52.30
2019-05-26T12:55:36.683Z,52.10
2019-05-26T12:58:05.325Z,52.10
2019-05-26T13:00:47.446Z,52.20
2019-05-26T13:03:04.156Z,52.10
2019-05-26T13:05:32.926Z,52.50
2019-05-26T13:08:01.349Z,52.60
2019-05-26T13:10:29.773Z,52.90
2019-05-26T13:12:58.223Z,53.20
2019-05-26T13:15:26.804Z,53.30
2019-05-26T13:17:55.230Z,53.10
2019-05-26T13:20:23.708Z,53.00
2019-05-26T13:22:52.125Z,52.20
2019-05-26T13:25:21.218Z,52.40
2019-05-26T13:27:49.627Z,52.50
2019-05-26T13:30:20.881Z,51.80
2019-05-26T13:32:49.306Z,51.90
2019-05-26T13:35:18.361Z,52.00
2019-05-26T13:37:46.769Z,52.00
2019-05-26T13:40:16.105Z,51.30
2019-05-26T13:42:44.547Z,51.00
2019-05-26T13:45:22.256Z,51.10
2019-05-26T13:47:45.368Z,51.20
2019-05-26T13:50:14.707Z,50.70
2019-05-26T13:52:43.133Z,50.00
2019-05-26T13:55:11.974Z,49.50
2019-05-26T13:57:40.429Z,48.20
2019-05-26T14:00:10.663Z,47.20
2019-05-26T14:02:39.244Z,46.90
2019-05-26T14:05:08.498Z,47.10
2019-05-26T14:07:36.936Z,47.00
2019-05-26T14:10:06.994Z,45.50
2019-05-26T14:12:35.701Z,45.20
2019-05-26T14:15:06.350Z,45.10
2019-05-26T14:17:35.506Z,45.60
2019-05-26T14:20:06.500Z,44.90
2019-05-26T14:22:34.922Z,44.40
2019-05-26T14:25:04.476Z,45.40
2019-05-26T14:27:32.887Z,44.70
2019-05-26T14:30:01.363Z,44.20
2019-05-26T14:32:30.716Z,44.60
2019-05-26T14:34:59.135Z,44.70
2019-05-26T14:37:27.596Z,44.60
2019-05-26T14:39:56.054Z,45.00
2019-05-26T14:42:24.457Z,45.00
2019-05-26T14:44:52.871Z,45.50
2019-05-26T14:47:21.300Z,45.50
2019-05-26T14:49:49.715Z,45.80
2019-05-26T14:52:18.122Z,45.80
2019-05-26T14:54:46.542Z,46.10
2019-05-26T14:57:14.960Z,45.90
2019-05-26T14:59:43.381Z,46.20
2019-05-26T15:02:11.789Z,46.20
2019-05-26T15:04:40.262Z,45.80
2019-05-26T15:07:08.768Z,46.00
2019-05-26T15:09:37.173Z,45.80
2019-05-26T15:12:05.589Z,46.00
2019-05-26T15:14:34.001Z,45.60
2019-05-26T15:17:02.409Z,45.50
2019-05-26T15:19:30.812Z,45.90
2019-05-26T15:21:59.236Z,46.60
2019-05-26T15:24:27.761Z,47.10
2019-05-26T15:26:56.234Z,47.40
2019-05-26T15:29:24.643Z,47.70
2019-05-26T15:31:53.061Z,47.80
2019-05-26T15:34:21.487Z,48.50
2019-05-26T15:36:49.904Z,48.00
2019-05-26T15:39:18.620Z,47.60
2019-05-26T15:41:47.378Z,47.50
2019-05-26T15:44:15.775Z,47.20
2019-05-26T15:46:44.188Z,47.40
2019-05-26T15:49:12.647Z,47.60
2019-05-26T15:51:41.063Z,48.00
2019-05-26T15:54:09.499Z,48.40
2019-05-26T15:56:37.982Z,48.50
2019-05-26T15:59:06.405Z,48.60
2019-05-26T16:01:34.817Z,49.30
2019-05-26T16:04:03.254Z,49.00
2019-05-26T16:06:31.671Z,49.30
2019-05-26T16:09:00.086Z,49.50
2019-05-26T16:11:28.491Z,49.50
2019-05-26T16:13:56.937Z,49.50
2019-05-26T16:16:40.083Z,49.50
2019-05-26T16:18:55.534Z,50.40
2019-05-26T16:21:28.166Z,50.10
2019-05-26T16:23:54.090Z,50.60
2019-05-26T16:26:22.740Z,50.80
2019-05-26T16:28:51.437Z,50.80
2019-05-26T16:31:19.838Z,50.80
2019-05-26T16:33:48.538Z,50.70
2019-05-26T16:36:16.950Z,50.70
2019-05-26T16:38:45.356Z,50.80
2019-05-26T16:41:13.765Z,50.40
2019-05-26T16:43:44.963Z,50.70
2019-05-26T16:46:13.702Z,50.90
2019-05-26T16:48:42.116Z,50.90
2019-05-26T16:51:10.531Z,51.00
2019-05-26T16:53:39.001Z,50.60
2019-05-26T16:56:07.428Z,50.60
2019-05-26T16:58:35.867Z,49.70
2019-05-26T17:01:04.286Z,49.80
2019-05-26T17:03:35.495Z,50.10
2019-05-26T17:06:08.029Z,50.10
2019-05-26T17:08:34.067Z,50.20
2019-05-26T17:11:02.462Z,50.50
2019-05-26T17:13:32.994Z,50.80
2019-05-26T17:16:01.161Z,51.00
2019-05-26T17:18:29.664Z,51.30
2019-05-26T17:20:58.066Z,51.80
2019-05-26T17:23:26.654Z,51.90
2019-05-26T17:25:55.067Z,52.10
2019-05-26T17:28:23.494Z,52.30
2019-05-26T17:30:51.913Z,52.60
2019-05-26T17:33:20.319Z,52.90
2019-05-26T17:35:48.743Z,52.80
2019-05-26T17:38:17.150Z,53.00
2019-05-26T17:40:45.567Z,53.20
2019-05-26T17:43:13.983Z,53.10
2019-05-26T17:45:42.395Z,53.50
2019-05-26T17:48:10.823Z,53.60
2019-05-26T17:50:39.521Z,53.50
2019-05-26T17:53:07.997Z,53.50
2019-05-26T17:55:36.406Z,53.70
2019-05-26T17:58:04.947Z,53.80
2019-05-26T18:00:33.618Z,54.00
2019-05-26T18:03:02.071Z,54.30
2019-05-26T18:05:30.708Z,54.30
2019-05-26T18:07:59.181Z,54.20
2019-05-26T18:10:27.577Z,54.00
2019-05-26T18:12:56.088Z,54.00
2019-05-26T18:15:24.508Z,54.10
2019-05-26T18:17:52.962Z,54.00
2019-05-26T18:20:24.194Z,54.20
2019-05-26T18:22:52.669Z,54.40
2019-05-26T18:25:21.722Z,54.40
2019-05-26T18:27:50.903Z,54.50
2019-05-26T18:30:19.734Z,54.70
2019-05-26T18:32:48.137Z,54.70
2019-05-26T18:35:16.785Z,55.10
2019-05-26T18:37:45.222Z,55.50
2019-05-26T18:40:13.874Z,55.90
2019-05-26T18:42:42.311Z,56.20
2019-05-26T18:45:11.076Z,56.30
2019-05-26T18:47:39.487Z,56.70
2019-05-26T18:50:08.157Z,56.80
2019-05-26T18:52:36.564Z,56.80
2019-05-26T18:55:06.765Z,57.00
2019-05-26T18:57:35.196Z,57.10
2019-05-26T19:00:08.620Z,56.90
2019-05-26T19:02:37.026Z,56.80
2019-05-26T19:05:06.461Z,56.80
2019-05-26T19:07:34.876Z,56.90
2019-05-26T19:10:04.515Z,56.90
2019-05-26T19:12:32.938Z,56.90
2019-05-26T19:15:01.342Z,56.80
2019-05-26T19:17:29.840Z,57.00
2019-05-26T19:20:12.867Z,57.00
2019-05-26T19:22:28.458Z,57.10
2019-05-26T19:24:57.206Z,57.40
2019-05-26T19:27:25.765Z,56.60
2019-05-26T19:29:54.169Z,56.60
2019-05-26T19:32:22.592Z,56.80
2019-05-26T19:34:51.050Z,57.50
2019-05-26T19:37:19.508Z,57.00
2019-05-26T19:39:47.951Z,57.10
2019-05-26T19:42:16.584Z,57.30
2019-05-26T19:44:45.237Z,57.40
2019-05-26T19:47:13.654Z,57.40
2019-05-26T19:49:42.074Z,57.60
2019-05-26T19:52:10.485Z,58.20
2019-05-26T19:54:38.891Z,58.50
2019-05-26T19:57:07.299Z,59.10
2019-05-26T19:59:35.703Z,59.40
2019-05-26T20:02:17.985Z,60.20
2019-05-26T20:04:34.298Z,61.40
2019-05-26T20:07:02.714Z,62.70
2019-05-26T20:09:31.122Z,63.30
2019-05-26T20:11:59.526Z,64.00
2019-05-26T20:14:27.980Z,64.70
2019-05-26T20:16:56.378Z,65.30
2019-05-26T20:19:24.790Z,65.50
2019-05-26T20:21:53.810Z,65.60
2019-05-26T20:24:22.238Z,66.30
2019-05-26T20:26:51.086Z,65.70
2019-05-26T20:29:19.497Z,65.50
2019-05-26T20:31:47.917Z,65.30
2019-05-26T20:34:16.313Z,65.00
2019-05-26T20:36:44.747Z,65.20
2019-05-26T20:39:13.174Z,64.90
2019-05-26T20:41:41.584Z,65.20
2019-05-26T20:44:09.984Z,65.40
2019-05-26T20:46:38.396Z,65.40
2019-05-26T20:49:06.845Z,66.00
2019-05-26T20:51:35.323Z,67.00
2019-05-26T20:54:04.607Z,67.80
2019-05-26T20:56:33.016Z,68.60
2019-05-26T20:59:01.780Z,69.80
2019-05-26T21:01:30.196Z,70.80
2019-05-26T21:03:58.738Z,71.90
2019-05-26T21:06:27.173Z,73.30
2019-05-26T21:08:55.608Z,73.80
2019-05-26T21:11:24.025Z,74.50
2019-05-26T21:13:52.498Z,75.80
2019-05-26T21:16:20.921Z,76.70
2019-05-26T21:18:49.347Z,77.80
2019-05-26T21:21:17.759Z,78.40
2019-05-26T21:23:46.175Z,79.50
2019-05-26T21:26:14.592Z,79.70
2019-05-26T21:28:43.008Z,80.10
2019-05-26T21:31:11.414Z,80.50
2019-05-26T21:33:39.832Z,80.70
2019-05-26T21:36:08.294Z,81.60
2019-05-26T21:38:36.976Z,82.10
2019-05-26T21:41:05.391Z,82.90
2019-05-26T21:43:33.830Z,83.20
2019-05-26T21:46:02.264Z,83.40
2019-05-26T21:48:30.669Z,84.00
2019-05-26T21:50:59.090Z,84.50
2019-05-26T21:53:27.510Z,84.90
2019-05-26T21:55:55.905Z,85.10
2019-05-26T21:58:24.341Z,85.60
2019-05-26T22:00:52.805Z,86.10
2019-05-26T22:03:21.794Z,86.20
2019-05-26T22:05:50.259Z,86.80
2019-05-26T22:08:18.689Z,87.00
2019-05-26T22:10:47.348Z,87.40
2019-05-26T22:13:15.760Z,87.70
2019-05-26T22:15:44.174Z,87.60
2019-05-26T22:18:12.578Z,87.60
2019-05-26T22:20:40.986Z,87.50
2019-05-26T22:23:09.404Z,88.50
2019-05-26T22:25:37.819Z,87.70
2019-05-26T22:28:06.230Z,87.60
2019-05-26T22:30:34.688Z,88.30
2019-05-26T22:33:03.103Z,87.80
2019-05-26T22:35:32.046Z,88.00
2019-05-26T22:38:00.598Z,88.20
2019-05-26T22:40:29.158Z,88.50
2019-05-26T22:42:57.574Z,88.70
2019-05-26T22:45:25.977Z,88.50
2019-05-26T22:47:54.386Z,88.50
2019-05-26T22:50:22.796Z,88.50
2019-05-26T22:52:51.225Z,88.70
2019-05-26T22:55:19.621Z,88.90
2019-05-26T22:57:48.033Z,89.40
2019-05-26T23:00:16.984Z,89.30
2019-05-26T23:02:45.762Z,89.40
2019-05-26T23:05:15.128Z,89.50
2019-05-26T23:07:43.542Z,89.40
2019-05-26T23:10:13.203Z,89.50
2019-05-26T23:12:41.605Z,89.60
2019-05-26T23:15:11.052Z,89.10
2019-05-26T23:17:39.496Z,89.20
2019-05-26T23:20:08.642Z,89.30
2019-05-26T23:22:37.055Z,88.50
2019-05-26T23:25:06.615Z,88.00
2019-05-26T23:27:35.023Z,87.60
2019-05-26T23:30:05.766Z,87.20
2019-05-26T23:32:34.248Z,87.00
2019-05-26T23:35:03.128Z,87.20
2019-05-26T23:37:31.538Z,87.20
2019-05-26T23:39:59.944Z,87.10
2019-05-26T23:42:28.368Z,87.00
2019-05-26T23:44:56.769Z,86.20
2019-05-26T23:47:25.179Z,86.20
2019-05-26T23:49:53.619Z,85.90
2019-05-26T23:52:22.026Z,86.00
2019-05-26T23:54:50.455Z,86.20
2019-05-26T23:57:18.865Z,86.60
2019-05-26T23:59:47.275Z,86.60
